Lancaster, PA

2:28 PM EST on January 17, 2017 (GMT -0500)
Willow Acres | | Change Station
Active Advisory: Small Craft Advisory

Elev 120 ft 40.03 °N, 76.20 °W | Updated 1 minute ago

Overcast
Overcast
42.4 °F
Feels Like 42 °F
N
2.0
Wind Variable Wind from ESE

Today
High -- | Low -- °F
--% Chance of Precip.
Yesterday
High -- | Low -- °F
Precip. -- in
Pressure 30.03 in
Visibility 3.0 miles
Clouds Overcast 600 ft
Windchill 42 °F
Dew Point 39 °F
Humidity 88%
Rainfall 0.00 in
Snow Depth Not available.
7:23 AM 5:06 PM
Waning Gibbous, 70% visible
SPECI KLNS 171906Z 13006KT 3SM -RA BR OVC006 06/05 A3003 RMK AO2 CIG 006V009 P0000 T00560050
Pressure 30.03 in
Visibility 3.0 miles
Clouds Overcast 600 ft
Windchill 42 °F
Dew Point 39 °F
Humidity 88%
Rainfall 0.00 in
Snow Depth Not available.
7:23 AM 5:06 PM
Waning Gibbous, 70% visible
SPECI KLNS 171906Z 13006KT 3SM -RA BR OVC006 06/05 A3003 RMK AO2 CIG 006V009 P0000 T00560050

Get Your Daily Forecast Email!

Thanks for signing up!

Be on the lookout for a verification email in your inbox.

You'll start receiving the daily forecast at 8 AM.

×

10-Day Weather Forecast

Almanac

Astronomy

Jan. 17, 2017 Rise Set
Actual Time
Civil Twilight
Nautical Twilight
Astronomical Twilight
Moon
Length of Visible Light
Length of Day
Tomorrow will be .
, % of the Moon is Illuminated

Today's Extremes

State Highs State Lows

Community

WunderPhotos

Upload Photos

1,962,540 photos uploaded!

WunderBlog® & News

Nearby

Air Quality

  Air Quality AQ Index Pollutant
Not available.

Snow Depth

Station Depth Elevation

Earthquake Activity

City Distance Mag. Time & Date
Minimum magnitude displayed is 2.5.

Coastal Water Temperatures

Place Temperature

Stations

Nearby Weather Stations

Station Location Temp. Windchill Dew Point Humidity Wind Precip. Elev Updated Type
                   

Watches & Warnings

Small Craft Advisory
Issued: 12:34 PM EST Jan. 17, 2017 – National Weather Service

... Small Craft Advisory remains in effect from 7 am to 6 PM EST
Wednesday...

* winds... 18 to 33 knots within the Small Craft Advisory.

Precautionary/preparedness actions...

A Small Craft Advisory means winds of 18 to 33 knots are imminent
or occurring. Boaters operating smaller vessels should avoid
navigating in these conditions.